Time;durP1;ratioP1;P1;durP2;ratioP2;P2;SDS_P1;SDS_P2;PMS_P1;PMS_P2;Temp;Humidity;BMP_temperature;BMP_pressure;BME280_temperature;BME280_humidity;BME280_pressure;Samples;Min_cycle;Max_cycle;Signal;HPM_P1;HPM_P2
2021/04/21 00:01:04;;;;;;;18.30;12.73;;;;;;;11.03;100.00;101947.25;5032027;28;20068;-67
2021/04/21 00:03:31;;;;;;;20.15;11.57;;;;;;;11.04;100.00;101937.97;5031927;28;20112;-65
2021/04/21 00:05:59;;;;;;;21.77;12.20;;;;;;;11.08;100.00;101931.00;5031908;28;20034;-68
2021/04/21 00:08:26;;;;;;;22.75;11.82;;;;;;;11.10;100.00;101942.56;5031874;28;20037;-66
2021/04/21 00:10:53;;;;;;;21.55;12.38;;;;;;;11.11;100.00;101947.00;5031905;28;20041;-65
2021/04/21 00:13:21;;;;;;;21.70;12.55;;;;;;;11.13;100.00;101941.31;5031929;28;20042;-65
2021/04/21 00:15:48;;;;;;;24.20;13.23;;;;;;;11.14;100.00;101940.25;5031892;28;20115;-66
2021/04/21 00:18:15;;;;;;;19.08;11.95;;;;;;;11.15;100.00;101945.50;5031723;28;20037;-66
2021/04/21 00:20:53;;;;;;;22.40;14.20;;;;;;;11.16;100.00;101940.88;5031507;28;20048;-65
2021/04/21 00:23:20;;;;;;;20.38;14.45;;;;;;;11.16;100.00;101941.72;5031856;28;20034;-65
2021/04/21 00:25:51;;;;;;;22.27;14.38;;;;;;;11.17;100.00;101937.91;5031475;28;20511;-65
2021/04/21 00:28:19;;;;;;;21.55;13.13;;;;;;;11.18;100.00;101938.75;5031920;28;20041;-65
2021/04/21 00:30:44;;;;;;;24.67;13.75;;;;;;;11.18;100.00;101945.06;5031549;28;20495;-66
2021/04/21 00:33:12;;;;;;;24.20;13.73;;;;;;;11.19;100.00;101945.91;5031401;28;20069;-65
2021/04/21 00:35:43;;;;;;;26.92;13.93;;;;;;;11.15;100.00;101934.56;5031233;28;20475;-66
2021/04/21 00:38:18;;;;;;;27.20;14.52;;;;;;;11.12;100.00;101935.00;5031451;28;20515;-67
2021/04/21 00:40:43;;;;;;;27.85;15.75;;;;;;;11.08;100.00;101943.84;5031273;28;20041;-65
2021/04/21 00:43:29;;;;;;;29.23;14.43;;;;;;;11.05;100.00;101938.81;5031266;28;20045;-66
2021/04/21 00:46:07;;;;;;;25.80;14.50;;;;;;;11.02;100.00;101933.78;5031075;28;20029;-65
2021/04/21 00:48:54;;;;;;;21.05;13.52;;;;;;;11.02;100.00;101934.63;5031245;28;20408;-65
2021/04/21 00:51:34;;;;;;;20.00;12.43;;;;;;;10.99;100.00;101940.53;5029903;28;20214;-66
2021/04/21 00:54:30;;;;;;;20.73;13.25;;;;;;;10.99;100.00;101934.22;5031021;28;20475;-67
2021/04/21 00:57:02;;;;;;;24.45;12.02;;;;;;;10.99;100.00;101934.22;5031522;28;20062;-66
2021/04/21 00:59:49;;;;;;;23.67;12.85;;;;;;;10.98;100.00;101938.88;5031113;28;20454;-66
2021/04/21 01:02:17;;;;;;;21.90;13.25;;;;;;;10.97;100.00;101934.44;5031382;28;20068;-64
2021/04/21 01:04:43;;;;;;;21.60;12.32;;;;;;;10.97;100.00;101942.66;5031049;28;20037;-65
2021/04/21 01:07:11;;;;;;;24.08;13.27;;;;;;;10.98;100.00;101944.31;5031094;28;20049;-65
2021/04/21 01:09:40;;;;;;;24.23;12.77;;;;;;;10.99;100.00;101934.22;5031066;28;20039;-66
2021/04/21 01:12:09;;;;;;;20.23;13.35;;;;;;;11.00;100.00;101935.91;5031284;28;20041;-64
2021/04/21 01:14:40;;;;;;;22.95;13.38;;;;;;;11.00;100.00;101935.91;5031120;28;20035;-66
2021/04/21 01:17:09;;;;;;;23.73;13.35;;;;;;;11.02;100.00;101934.63;5031172;28;20125;-65
2021/04/21 01:19:40;;;;;;;23.40;13.80;;;;;;;11.03;100.00;101928.09;5031245;28;20044;-66
2021/04/21 01:22:48;;;;;;;21.88;13.23;;;;;;;11.04;100.00;101940.72;5031176;28;20445;-67
2021/04/21 01:25:26;;;;;;;20.42;12.68;;;;;;;11.02;100.00;101929.16;5030717;28;20037;-66
2021/04/21 01:28:00;;;;;;;22.10;13.23;;;;;;;10.98;100.00;101938.88;5030844;28;20057;-66
2021/04/21 01:30:28;;;;;;;19.83;13.00;;;;;;;10.95;100.00;101939.31;5029433;28;20419;-67
2021/04/21 01:33:00;;;;;;;25.67;14.27;;;;;;;10.94;100.00;101934.91;5030741;28;20395;-65
2021/04/21 01:35:27;;;;;;;24.50;12.18;;;;;;;10.93;100.00;101933.19;5030735;28;20104;-67
2021/04/21 01:37:59;;;;;;;21.85;13.10;;;;;;;10.93;100.00;101941.38;5030640;28;20041;-67
2021/04/21 01:40:37;;;;;;;18.60;12.63;;;;;;;10.96;100.00;101935.50;5030525;28;20033;-66
2021/04/21 01:43:14;;;;;;;23.75;13.77;;;;;;;10.98;100.00;101935.28;5030977;28;20033;-65
2021/04/21 01:45:42;;;;;;;29.25;13.10;;;;;;;10.99;100.00;101929.59;5030588;28;20048;-64
2021/04/21 01:48:14;;;;;;;23.17;13.93;;;;;;;11.01;100.00;101932.13;5030440;28;20049;-65
2021/04/21 01:50:39;;;;;;;22.52;15.10;;;;;;;11.02;100.00;101923.69;5030526;28;20041;-65
2021/04/21 01:53:43;;;;;;;24.80;14.15;;;;;;;11.05;100.00;101925.97;5030681;28;20087;-66
2021/04/21 01:56:32;;;;;;;27.48;15.75;;;;;;;11.04;100.00;101921.56;5030482;28;20037;-67
2021/04/21 01:59:35;;;;;;;20.75;14.90;;;;;;;11.01;100.00;101916.56;5034284;28;20037;-66
2021/04/21 02:02:08;;;;;;;24.67;15.70;;;;;;;10.99;100.00;101913.19;5033101;28;20407;-66
2021/04/21 02:04:49;;;;;;;21.67;14.38;;;;;;;10.95;100.00;101917.44;5034165;28;20038;-65
2021/04/21 02:07:59;;;;;;;20.95;12.70;;;;;;;10.88;100.00;101924.81;5034293;28;20033;-67
2021/04/21 02:10:40;;;;;;;18.90;12.70;;;;;;;10.80;100.00;101919.59;5034118;28;20041;-66
2021/04/21 02:13:27;;;;;;;19.70;12.68;;;;;;;10.76;100.00;101919.22;5034127;28;20041;-66
2021/04/21 02:16:18;;;;;;;19.77;12.25;;;;;;;10.76;100.00;101919.22;5033910;28;20033;-65
2021/04/21 02:18:52;;;;;;;20.50;12.05;;;;;;;10.77;100.00;101925.50;5034128;28;20033;-67
2021/04/21 02:21:20;;;;;;;20.23;11.93;;;;;;;10.77;100.00;101914.59;5033958;28;20067;-66
2021/04/21 02:23:59;;;;;;;19.48;12.25;;;;;;;10.75;100.00;101911.19;5033780;28;20033;-67
2021/04/21 02:26:38;;;;;;;17.80;11.32;;;;;;;10.74;100.00;101904.06;5033909;28;20025;-65
2021/04/21 02:29:16;;;;;;;17.88;11.50;;;;;;;10.71;100.00;101901.75;5033786;28;20030;-66
2021/04/21 02:32:12;;;;;;;15.52;11.40;;;;;;;10.70;100.00;101908.28;5033749;28;20116;-65
2021/04/21 02:34:52;;;;;;;20.73;11.93;;;;;;;10.70;100.00;101913.75;5033649;28;20167;-64
2021/04/21 02:37:34;;;;;;;21.25;12.73;;;;;;;10.69;100.00;101912.06;5033754;28;20041;-66
2021/04/21 02:40:12;;;;;;;22.05;12.65;;;;;;;10.68;100.00;101913.97;5033525;28;20558;-65
2021/04/21 02:43:13;;;;;;;17.83;11.15;;;;;;;10.68;100.00;101908.50;5033611;28;20037;-65
2021/04/21 02:45:58;;;;;;;23.35;13.85;;;;;;;10.64;100.00;101909.16;5033088;28;20065;-66
2021/04/21 02:48:42;;;;;;;24.48;15.40;;;;;;;10.61;100.00;101909.59;5033336;28;20049;-65
2021/04/21 02:51:16;;;;;;;25.98;16.95;;;;;;;10.59;100.00;101901.63;5033413;28;20030;-65
2021/04/21 02:54:12;;;;;;;28.00;17.25;;;;;;;10.60;100.00;101897.00;5033372;28;20052;-65
2021/04/21 02:56:46;;;;;;;23.33;16.27;;;;;;;10.58;100.00;101906.22;5033414;28;20037;-66
2021/04/21 02:59:37;;;;;;;22.77;15.75;;;;;;;10.58;100.00;101905.38;5033242;28;20503;-66
2021/04/21 03:02:14;;;;;;;20.88;13.88;;;;;;;10.56;100.00;101908.34;5033194;28;20467;-65
2021/04/21 03:04:54;;;;;;;23.80;15.15;;;;;;;10.56;100.00;101908.34;5033045;28;20037;-67
2021/04/21 03:07:38;;;;;;;22.35;13.95;;;;;;;10.54;100.00;101910.44;5033187;28;20117;-66
2021/04/21 03:10:11;;;;;;;22.27;14.45;;;;;;;10.53;100.00;101908.78;5033107;28;20038;-65
2021/04/21 03:12:41;;;;;;;21.02;14.13;;;;;;;10.51;100.00;101910.88;5033086;28;20029;-64
2021/04/21 03:15:11;;;;;;;20.60;13.25;;;;;;;10.51;100.00;101905.41;5033023;28;20088;-65
2021/04/21 03:17:41;;;;;;;22.63;14.30;;;;;;;10.49;100.00;101902.06;5032881;28;20048;-65
2021/04/21 03:20:10;;;;;;;19.52;12.43;;;;;;;10.49;100.00;101896.59;5032696;28;20144;-64
2021/04/21 03:22:38;;;;;;;21.95;11.57;;;;;;;10.46;100.00;101896.22;5032786;28;20175;-65
2021/04/21 03:25:21;;;;;;;18.45;11.38;;;;;;;10.42;100.00;101898.53;5032774;28;20049;-64
2021/04/21 03:27:55;;;;;;;17.35;11.75;;;;;;;10.40;100.00;101903.34;5032793;28;20092;-66
2021/04/21 03:30:24;;;;;;;18.23;11.73;;;;;;;10.38;100.00;101894.53;5032807;28;20037;-66
2021/04/21 03:33:02;;;;;;;16.98;11.13;;;;;;;10.37;100.00;101898.31;5031228;28;20044;-65
2021/04/21 03:35:29;;;;;;;18.55;11.05;;;;;;;10.38;100.00;101893.69;5032491;28;20503;-67
2021/04/21 03:38:04;;;;;;;17.92;11.98;;;;;;;10.36;100.00;101896.66;5032706;28;20160;-65
2021/04/21 03:40:30;;;;;;;20.33;13.05;;;;;;;10.35;100.00;101892.25;5032448;28;20084;-64
2021/04/21 03:42:56;;;;;;;19.42;12.35;;;;;;;10.34;100.00;101901.50;5032508;28;20504;-65
2021/04/21 03:45:23;;;;;;;19.42;13.35;;;;;;;10.32;100.00;101895.41;5032308;28;20377;-66
2021/04/21 03:47:50;;;;;;;21.33;13.52;;;;;;;10.33;100.00;101897.09;5032224;28;20065;-66
2021/04/21 03:50:17;;;;;;;23.42;14.52;;;;;;;10.35;100.00;101900.44;5032282;28;20431;-65
2021/04/21 03:52:46;;;;;;;25.42;16.35;;;;;;;10.35;100.00;101894.97;5032264;28;20488;-65
2021/04/21 03:55:13;;;;;;;22.40;16.08;;;;;;;10.37;100.00;101898.31;5032122;28;20041;-64
2021/04/21 03:57:45;;;;;;;25.75;16.00;;;;;;;10.38;100.00;101894.53;5032111;28;20492;-65
2021/04/21 04:00:14;;;;;;;23.75;16.17;;;;;;;10.39;100.00;101901.66;5032100;28;20397;-66
2021/04/21 04:02:54;;;;;;;25.05;15.93;;;;;;;10.38;100.00;101900.00;5032169;28;20041;-65
2021/04/21 04:05:25;;;;;;;30.88;16.90;;;;;;;10.37;100.00;101895.59;5032033;28;20060;-66
2021/04/21 04:07:54;;;;;;;25.38;16.13;;;;;;;10.37;100.00;101900.22;5031930;28;20488;-66
2021/04/21 04:10:24;;;;;;;24.75;17.08;;;;;;;10.35;100.00;101894.97;5031844;28;20404;-65
2021/04/21 04:12:54;;;;;;;18.55;13.85;;;;;;;10.34;100.00;101904.22;5031886;28;20037;-66
2021/04/21 04:15:22;;;;;;;19.52;12.85;;;;;;;10.31;100.00;101896.47;5031784;28;20029;-66
2021/04/21 04:17:49;;;;;;;19.23;12.45;;;;;;;10.29;100.00;101895.84;5031810;28;20434;-65
2021/04/21 04:20:17;;;;;;;21.30;12.70;;;;;;;10.29;100.00;101895.84;5031159;28;20152;-66
2021/04/21 04:22:50;;;;;;;19.50;13.35;;;;;;;10.27;100.00;101892.50;5031531;28;20048;-66
2021/04/21 04:25:17;;;;;;;21.25;14.32;;;;;;;10.27;100.00;101892.50;5031511;28;20476;-67
2021/04/21 04:27:45;;;;;;;22.13;15.32;;;;;;;10.25;100.00;101889.13;5031595;28;20069;-66
2021/04/21 04:30:11;;;;;;;23.13;14.07;;;;;;;10.24;100.00;101903.84;5031527;28;20033;-66
2021/04/21 04:32:42;;;;;;;25.83;15.30;;;;;;;10.20;100.00;101894.34;5031573;28;20492;-66
2021/04/21 04:35:10;;;;;;;21.73;14.73;;;;;;;10.19;100.00;101900.88;5031769;28;20040;-64
2021/04/21 04:37:39;;;;;;;22.90;14.40;;;;;;;10.16;100.00;101901.28;5031452;28;20048;-66
2021/04/21 04:40:11;;;;;;;18.30;14.13;;;;;;;10.15;100.00;101900.47;5031215;28;20040;-65
2021/04/21 04:42:38;;;;;;;25.58;13.85;;;;;;;10.12;100.00;101895.44;5031299;28;20041;-65
2021/04/21 04:45:08;;;;;;;17.50;11.05;;;;;;;10.11;100.00;101898.38;5031178;28;20444;-65
2021/04/21 04:47:45;;;;;;;14.38;10.43;;;;;;;10.08;100.00;101898.81;5031015;28;20057;-66
2021/04/21 04:50:17;;;;;;;20.42;11.57;;;;;;;10.04;100.00;101903.00;5031323;28;20025;-66
2021/04/21 04:52:45;;;;;;;16.73;10.48;;;;;;;10.02;100.00;101900.47;5031198;28;20037;-65
2021/04/21 04:55:14;;;;;;;16.65;9.90;;;;;;;10.00;100.00;101896.28;5031027;28;20037;-66
2021/04/21 04:57:46;;;;;;;18.60;11.70;;;;;;;9.98;100.00;101902.78;5031039;28;20045;-67
2021/04/21 05:00:14;;;;;;;18.95;11.85;;;;;;;9.97;100.00;101898.38;5030888;28;20556;-66
2021/04/21 05:02:43;;;;;;;15.15;10.98;;;;;;;9.97;100.00;101906.59;5031050;28;20116;-65
2021/04/21 05:05:10;;;;;;;19.73;14.40;;;;;;;9.96;100.00;101907.63;5030982;28;20112;-67
2021/04/21 05:07:43;;;;;;;22.42;15.65;;;;;;;10.01;100.00;101903.41;5031011;28;20087;-67
2021/04/21 05:10:28;;;;;;;25.27;16.07;;;;;;;10.04;100.00;101905.72;5031029;28;20495;-65
2021/04/21 05:12:57;;;;;;;23.85;18.00;;;;;;;10.05;100.00;101910.13;5029633;28;20365;-65
2021/04/21 05:15:51;;;;;;;28.77;18.60;;;;;;;10.05;100.00;101905.50;5030747;28;20132;-65
2021/04/21 05:18:24;;;;;;;26.52;18.60;;;;;;;10.07;100.00;101908.06;5030608;28;20045;-67
2021/04/21 05:21:27;;;;;;;25.08;18.88;;;;;;;10.06;100.00;101911.81;5030673;28;20112;-66
2021/04/21 05:24:26;;;;;;;24.17;17.95;;;;;;;10.07;100.00;101902.59;5028805;28;20057;-66
2021/04/21 05:26:51;;;;;;;25.27;18.67;;;;;;;10.05;100.00;101904.66;5030719;28;20127;-65
2021/04/21 05:29:46;;;;;;;25.23;18.63;;;;;;;10.03;100.00;101901.31;5030622;28;20121;-65
2021/04/21 05:32:45;;;;;;;28.08;17.58;;;;;;;10.02;100.00;101905.09;5014650;28;20045;-66
2021/04/21 05:35:38;;;;;;;27.88;18.30;;;;;;;10.00;100.00;101916.22;5034829;28;20037;-65
2021/04/21 05:38:25;;;;;;;24.83;17.50;;;;;;;10.01;100.00;101914.34;5034903;28;20038;-67
2021/04/21 05:40:56;;;;;;;26.92;17.83;;;;;;;10.01;100.00;101914.34;5034528;28;20052;-66
2021/04/21 05:43:36;;;;;;;25.30;17.88;;;;;;;9.98;100.00;101916.44;5034658;28;20118;-64
2021/04/21 05:46:17;;;;;;;27.67;18.65;;;;;;;9.97;100.00;101922.97;5034499;28;20480;-67
2021/04/21 05:49:07;;;;;;;27.52;18.02;;;;;;;9.98;100.00;101927.38;5034380;28;20077;-64
2021/04/21 05:51:57;;;;;;;25.73;17.60;;;;;;;10.00;100.00;101926.31;5034562;28;20488;-66
2021/04/21 05:54:45;;;;;;;26.00;17.52;;;;;;;10.02;100.00;101927.78;5033376;28;20037;-64
2021/04/21 05:57:23;;;;;;;26.95;19.48;;;;;;;10.04;100.00;101930.28;5034568;28;20069;-65
2021/04/21 06:00:12;;;;;;;28.77;17.42;;;;;;;10.04;100.00;101933.00;5034602;28;20033;-65
2021/04/21 06:02:39;;;;;;;27.27;17.58;;;;;;;10.05;100.00;101940.16;5034295;28;20033;-65
2021/04/21 06:05:12;;;;;;;27.23;17.40;;;;;;;10.08;100.00;101937.03;5034111;28;20139;-64
2021/04/21 06:07:38;;;;;;;27.85;18.98;;;;;;;10.11;100.00;101942.06;5034419;28;20530;-66
2021/04/21 06:10:22;;;;;;;26.45;18.65;;;;;;;10.14;100.00;101953.38;5032899;28;20073;-66
2021/04/21 06:12:51;;;;;;;25.93;19.07;;;;;;;10.16;100.00;101944.97;5034224;28;20037;-66
2021/04/21 06:15:22;;;;;;;24.27;17.08;;;;;;;10.18;100.00;101949.16;5032669;28;20037;-65
2021/04/21 06:17:53;;;;;;;28.85;18.67;;;;;;;10.23;100.00;101945.81;5034047;28;20108;-66
2021/04/21 06:20:38;;;;;;;27.20;18.15;;;;;;;10.26;100.00;101945.44;5032516;28;20044;-66
2021/04/21 06:23:12;;;;;;;26.48;18.42;;;;;;;10.29;100.00;101957.81;5034015;28;20041;-67
2021/04/21 06:25:40;;;;;;;25.35;16.63;;;;;;;10.32;100.00;101950.03;5033804;28;20455;-66
2021/04/21 06:28:07;;;;;;;29.40;17.15;;;;;;;10.35;100.00;101948.75;5033924;28;20484;-65
2021/04/21 06:30:33;;;;;;;28.27;17.95;;;;;;;10.38;100.00;101951.06;5033840;28;20037;-65
2021/04/21 06:33:04;;;;;;;21.55;15.70;;;;;;;10.39;100.00;101950.84;5032574;28;20048;-66
2021/04/21 06:35:30;;;;;;;23.77;16.50;;;;;;;10.41;100.00;101948.75;5033621;28;20041;-67
2021/04/21 06:38:01;;;;;;;22.15;15.27;;;;;;;10.44;100.00;101953.78;5033685;28;20041;-64
2021/04/21 06:40:29;;;;;;;22.88;14.93;;;;;;;10.46;100.00;101954.41;5033523;28;20037;-67
2021/04/21 06:42:57;;;;;;;24.60;15.82;;;;;;;10.47;100.00;101950.63;5033146;28;20112;-65
2021/04/21 06:45:34;;;;;;;22.05;14.43;;;;;;;10.51;100.00;101957.31;5033526;28;20044;-66
2021/04/21 06:48:03;;;;;;;22.42;15.30;;;;;;;10.55;100.00;101955.84;5033319;28;20049;-66
2021/04/21 06:50:34;;;;;;;26.02;14.85;;;;;;;10.57;100.00;101956.47;5033382;28;20030;-64
2021/04/21 06:53:05;;;;;;;22.15;14.93;;;;;;;10.60;100.00;101959.84;5033322;28;20488;-66
2021/04/21 06:55:32;;;;;;;19.77;14.63;;;;;;;10.65;100.00;101960.03;5033248;28;20462;-65
2021/04/21 06:57:59;;;;;;;22.75;15.15;;;;;;;10.70;100.00;101960.22;5033325;28;20041;-66
2021/04/21 07:00:28;;;;;;;23.60;15.38;;;;;;;10.78;100.00;101959.97;5033210;28;20065;-68
2021/04/21 07:02:58;;;;;;;21.00;15.02;;;;;;;10.87;100.00;101966.88;5033673;28;20382;-65
2021/04/21 07:05:37;;;;;;;23.30;15.80;;;;;;;10.94;100.00;101970.44;5033019;28;20057;-67
2021/04/21 07:08:10;;;;;;;22.95;14.93;;;;;;;10.99;100.00;101973.34;5033051;28;20510;-65
2021/04/21 07:10:44;;;;;;;22.25;15.40;;;;;;;11.04;100.00;101965.31;5033090;28;20472;-66
2021/04/21 07:13:31;;;;;;;25.38;16.42;;;;;;;11.12;100.00;101961.50;5033107;28;20083;-65
2021/04/21 07:15:59;;;;;;;22.63;16.50;;;;;;;11.16;100.00;101969.06;5032825;28;20090;-66
2021/04/21 07:18:32;;;;;;;23.00;15.85;;;;;;;11.20;100.00;101968.59;5032947;28;20419;-65
2021/04/21 07:21:00;;;;;;;24.15;15.32;;;;;;;11.29;100.00;101973.63;5032845;28;20036;-68
2021/04/21 07:23:27;;;;;;;23.08;16.15;;;;;;;11.38;100.00;101971.44;5032789;28;20037;-67
2021/04/21 07:25:54;;;;;;;25.65;16.55;;;;;;;11.44;100.00;101981.50;5032659;28;20120;-64
2021/04/21 07:28:22;;;;;;;25.92;15.57;;;;;;;11.53;100.00;101973.88;5032668;28;20434;-65
2021/04/21 07:30:53;;;;;;;23.95;16.40;;;;;;;11.62;100.00;101978.84;5032599;28;20040;-66
2021/04/21 07:33:37;;;;;;;21.55;13.77;;;;;;;11.74;100.00;101979.81;5032766;28;20040;-65
2021/04/21 07:36:26;;;;;;;18.42;13.63;;;;;;;11.86;100.00;101984.63;5032570;28;20044;-66
2021/04/21 07:38:54;;;;;;;14.90;12.18;;;;;;;11.97;100.00;101983.88;5032404;28;20504;-66
2021/04/21 07:41:39;;;;;;;16.10;11.52;;;;;;;12.08;100.00;101977.69;5032313;28;20125;-66
2021/04/21 07:44:07;;;;;;;15.68;10.57;;;;;;;12.20;100.00;101975.88;5032062;28;20144;-63
2021/04/21 07:46:33;;;;;;;16.30;10.57;;;;;;;12.29;100.00;101981.91;5047498;28;20091;-64
2021/04/21 07:48:59;;;;;;;16.77;10.73;;;;;;;12.38;100.00;101978.66;5047226;28;20138;-64
2021/04/21 07:51:24;;;;;;;13.93;9.90;;;;;;;12.56;100.00;101996.19;5051585;28;20056;-62
2021/04/21 07:54:18;;;;;;;13.60;10.32;;;;;;;12.70;100.00;101986.75;5038598;28;20080;-62
2021/04/21 07:56:59;;;;;;;14.18;10.50;;;;;;;12.89;100.00;101993.06;5050595;28;20052;-64
2021/04/21 07:59:29;;;;;;;13.35;9.90;;;;;;;13.01;100.00;102001.34;5050046;28;20036;-67
2021/04/21 08:02:07;;;;;;;13.38;10.13;;;;;;;13.09;100.00;101990.06;5051488;28;20040;-68
2021/04/21 08:04:33;;;;;;;14.98;10.05;;;;;;;13.20;100.00;101992.91;5047902;28;20037;-69
2021/04/21 08:07:00;;;;;;;18.73;10.40;;;;;;;13.31;100.00;101994.03;5051110;28;20051;-69
2021/04/21 08:09:34;;;;;;;13.60;9.80;;;;;;;13.41;100.00;101999.81;5051689;28;20399;-67
2021/04/21 08:12:14;;;;;;;15.70;9.93;;;;;;;13.52;100.00;101996.25;5051821;28;20403;-64
2021/04/21 08:14:46;;;;;;;13.23;9.30;;;;;;;13.64;100.00;101992.72;5051667;28;20044;-67
2021/04/21 08:17:14;;;;;;;13.45;9.45;;;;;;;13.77;100.00;101989.75;5051727;28;20501;-72
2021/04/21 08:19:44;;;;;;;15.75;9.98;;;;;;;13.92;100.00;101995.66;5051693;28;20033;-69
2021/04/21 08:22:10;;;;;;;15.07;9.35;;;;;;;14.00;100.00;101991.72;5051723;28;20032;-67
2021/04/21 08:24:42;;;;;;;10.18;8.93;;;;;;;14.01;100.00;101996.97;5051537;28;20399;-67
2021/04/21 08:27:11;;;;;;;11.75;8.50;;;;;;;13.98;100.00;102005.69;5051825;28;20044;-66
2021/04/21 08:29:37;;;;;;;12.80;8.15;;;;;;;13.99;100.00;101993.63;5051494;28;20033;-71
2021/04/21 08:32:04;;;;;;;13.77;8.43;;;;;;;14.00;100.00;101997.19;5051387;28;20033;-68
2021/04/21 08:34:30;;;;;;;10.75;8.57;;;;;;;13.98;100.00;101991.94;5049958;28;20075;-70
2021/04/21 08:36:55;;;;;;;14.77;9.75;;;;;;;13.98;100.00;102000.19;5051308;28;20033;-68
2021/04/21 08:39:21;;;;;;;13.65;9.15;;;;;;;13.95;100.00;102006.16;5051313;28;20067;-66
2021/04/21 08:41:53;;;;;;;10.82;8.18;;;;;;;13.92;100.00;101994.81;5051212;28;20076;-65
2021/04/21 08:44:20;;;;;;;16.70;9.10;;;;;;;13.93;100.00;101997.31;5051292;28;20048;-68
2021/04/21 08:46:47;;;;;;;11.95;7.88;;;;;;;13.95;100.00;101995.16;5051142;28;20049;-63
2021/04/21 08:49:13;;;;;;;14.05;8.32;;;;;;;14.02;100.00;102006.88;5050907;28;20517;-71
2021/04/21 08:51:41;;;;;;;13.25;8.85;;;;;;;14.15;100.00;102001.16;5051151;28;20124;-64
2021/04/21 08:54:11;;;;;;;17.00;9.13;;;;;;;14.26;100.00;102001.41;5050972;28;20399;-66
2021/04/21 08:56:40;;;;;;;14.30;9.82;;;;;;;14.36;100.00;102002.47;5051407;28;20028;-66
2021/04/21 08:59:09;;;;;;;16.33;9.75;;;;;;;14.43;97.50;102002.38;5051127;28;20033;-64
2021/04/21 09:01:35;;;;;;;14.45;9.90;;;;;;;14.51;100.00;102003.94;5050873;28;20491;-68
2021/04/21 09:04:02;;;;;;;17.23;10.80;;;;;;;14.62;99.77;102006.69;5050700;28;20052;-68
2021/04/21 09:06:28;;;;;;;16.83;10.32;;;;;;;14.74;98.03;102004.75;5050756;28;20037;-66
2021/04/21 09:08:55;;;;;;;14.82;9.88;;;;;;;14.86;98.26;102010.22;5050946;28;20390;-66
2021/04/21 09:11:23;;;;;;;19.23;10.32;;;;;;;14.96;94.89;102007.72;5050799;28;20090;-65
2021/04/21 09:13:49;;;;;;;14.77;10.90;;;;;;;15.08;96.23;102010.41;5050877;28;20040;-68
2021/04/21 09:16:17;;;;;;;18.70;11.20;;;;;;;15.23;95.58;102010.72;5050840;28;20037;-68
2021/04/21 09:18:43;;;;;;;18.55;11.50;;;;;;;15.41;93.66;102014.38;5051282;28;20041;-65
2021/04/21 09:21:20;;;;;;;18.42;11.93;;;;;;;15.57;95.12;102016.34;5050694;28;20040;-67
2021/04/21 09:23:47;;;;;;;21.70;13.38;;;;;;;15.66;95.52;102017.66;5049228;28;20082;-69
2021/04/21 09:26:22;;;;;;;17.27;13.63;;;;;;;15.82;93.96;102016.84;5049423;28;20068;-67
2021/04/21 09:28:53;;;;;;;17.67;12.13;;;;;;;15.97;92.93;102019.88;5050564;28;20121;-68
2021/04/21 09:31:26;;;;;;;16.00;12.40;;;;;;;16.17;92.83;102015.78;5050569;28;20483;-65
2021/04/21 09:34:17;;;;;;;15.70;12.23;;;;;;;16.35;88.35;102026.56;5050605;28;20530;-65
2021/04/21 09:36:49;;;;;;;18.65;12.02;;;;;;;16.46;87.58;102033.88;5050059;28;20025;-65
2021/04/21 09:39:18;;;;;;;18.67;13.48;;;;;;;16.56;88.55;102034.03;5030570;28;20484;-70
2021/04/21 09:41:45;;;;;;;16.83;13.55;;;;;;;16.63;85.56;102021.97;5038043;28;20383;-66
2021/04/21 09:44:24;;;;;;;21.77;13.18;;;;;;;16.73;86.27;102027.69;5050341;28;20502;-68
2021/04/21 09:46:50;;;;;;;18.38;13.05;;;;;;;16.87;86.60;102029.81;5050406;28;20485;-68
2021/04/21 09:49:31;;;;;;;17.52;13.65;;;;;;;16.94;83.48;102035.16;5050111;28;20511;-65
2021/04/21 09:52:22;;;;;;;18.13;13.90;;;;;;;17.03;86.55;102033.63;5050382;28;20087;-63
2021/04/21 09:54:50;;;;;;;20.98;14.18;;;;;;;17.12;85.54;102032.06;5049711;28;20483;-64
2021/04/21 09:57:30;;;;;;;20.65;15.80;;;;;;;17.23;83.92;102032.22;5049984;28;20032;-69
2021/04/21 10:00:08;;;;;;;23.83;17.55;;;;;;;17.10;82.70;102037.03;5049629;28;20166;-71
2021/04/21 10:02:38;;;;;;;25.35;16.95;;;;;;;17.14;85.16;102035.41;5050510;28;20120;-67
2021/04/21 10:05:26;;;;;;;21.25;16.67;;;;;;;17.16;80.87;102038.75;5050206;28;20468;-68
2021/04/21 10:08:24;;;;;;;23.17;18.48;;;;;;;17.13;82.20;102039.25;5043457;28;20038;-67
2021/04/21 10:11:02;;;;;;;21.00;16.52;;;;;;;17.02;84.85;102040.25;5028701;28;20053;-69
2021/04/21 10:13:48;;;;;;;23.00;16.77;;;;;;;16.98;87.27;102039.06;5030488;28;20034;-66
2021/04/21 10:16:15;;;;;;;25.30;16.27;;;;;;;16.91;85.84;102030.16;5030285;28;20025;-71
2021/04/21 10:18:42;;;;;;;26.67;15.93;;;;;;;16.87;86.02;102040.03;5033485;28;20045;-72
2021/04/21 10:21:09;;;;;;;22.83;15.98;;;;;;;16.84;86.83;102037.78;5033883;28;20033;-66
2021/04/21 10:23:35;;;;;;;23.20;15.20;;;;;;;16.88;88.12;102036.19;5033977;28;20033;-66
2021/04/21 10:26:07;;;;;;;27.40;18.80;;;;;;;16.95;90.68;102045.09;5033833;28;20044;-66
2021/04/21 10:28:33;;;;;;;23.55;16.23;;;;;;;17.00;90.50;102039.63;5033874;28;20142;-69
2021/04/21 10:31:02;;;;;;;26.58;19.58;;;;;;;16.99;92.33;102049.00;5033975;28;20029;-66
2021/04/21 10:33:28;;;;;;;28.60;21.65;;;;;;;16.98;93.38;102052.88;5033887;28;20124;-66
2021/04/21 10:35:55;;;;;;;27.80;21.50;;;;;;;16.94;93.95;102045.34;5033824;28;20048;-68
2021/04/21 10:38:24;;;;;;;28.30;20.73;;;;;;;16.85;94.53;102043.06;5033666;28;20046;-65
2021/04/21 10:40:51;;;;;;;29.92;22.15;;;;;;;16.81;93.92;102058.41;5033737;28;20040;-68
2021/04/21 10:43:37;;;;;;;35.92;22.35;;;;;;;16.82;93.66;102048.22;5033647;28;20045;-71
2021/04/21 10:46:02;;;;;;;24.88;20.75;;;;;;;16.85;95.35;102047.72;5033772;28;20033;-68
2021/04/21 10:48:40;;;;;;;29.67;23.05;;;;;;;17.04;94.60;102059.31;5033359;28;20056;-67
2021/04/21 10:51:34;;;;;;;29.80;23.52;;;;;;;17.27;94.58;102060.97;5033405;28;20479;-70
2021/04/21 10:54:03;;;;;;;35.70;26.77;;;;;;;17.43;92.99;102066.44;5033730;28;20038;-72
2021/04/21 10:56:29;;;;;;;35.38;27.88;;;;;;;17.58;91.65;102060.25;5033372;28;20048;-67
2021/04/21 10:58:56;;;;;;;37.05;26.90;;;;;;;17.67;89.75;102055.91;5047626;28;20040;-68
2021/04/21 11:01:30;;;;;;;38.53;30.10;;;;;;;17.68;88.05;102063.13;5052221;28;20040;-66
2021/04/21 11:03:57;;;;;;;40.13;30.08;;;;;;;17.69;86.92;102064.78;5049824;28;20048;-65
2021/04/21 11:06:38;;;;;;;38.47;28.92;;;;;;;17.69;87.82;102059.28;5051735;28;20083;-68
2021/04/21 11:09:05;;;;;;;38.60;28.23;;;;;;;17.72;89.83;102064.31;5053168;28;20499;-68
2021/04/21 11:11:36;;;;;;;39.45;29.48;;;;;;;17.80;86.93;102070.44;5053008;28;20033;-69
2021/04/21 11:14:03;;;;;;;34.00;27.23;;;;;;;17.89;87.20;102063.38;5053998;28;20111;-69
2021/04/21 11:16:32;;;;;;;37.75;28.20;;;;;;;17.97;86.02;102066.47;5053223;28;20045;-68
2021/04/21 11:19:17;;;;;;;34.25;26.15;;;;;;;18.12;83.68;102068.56;5053119;28;20040;-66
2021/04/21 11:21:44;;;;;;;31.77;25.65;;;;;;;18.26;85.07;102075.31;5053016;28;20036;-67
2021/04/21 11:24:11;;;;;;;34.38;24.52;;;;;;;18.36;79.64;102075.38;5052881;28;20037;-70
2021/04/21 11:26:43;;;;;;;31.00;23.10;;;;;;;18.45;74.34;102070.22;5053087;28;20037;-68
2021/04/21 11:29:16;;;;;;;31.88;23.95;;;;;;;18.38;76.12;102073.19;5051575;28;20074;-70
2021/04/21 11:31:41;;;;;;;35.55;25.60;;;;;;;18.37;77.62;102068.75;5053045;28;20037;-67
2021/04/21 11:34:16;;;;;;;30.92;23.55;;;;;;;18.40;74.73;102070.19;5053175;28;20060;-70